sensor_id;sensor_type;location;lat;lon;timestamp;P1;durP1;ratioP1;P2;durP2;ratioP2
48743;SDS011;34538;48.836;9.174;2022-08-07T00:00:22;2.22;;;1.20;;
48743;SDS011;34538;48.836;9.174;2022-08-07T00:02:47;2.13;;;1.35;;
48743;SDS011;34538;48.836;9.174;2022-08-07T00:05:13;4.28;;;1.45;;
48743;SDS011;34538;48.836;9.174;2022-08-07T00:07:39;4.38;;;1.23;;
48743;SDS011;34538;48.836;9.174;2022-08-07T00:10:05;2.95;;;1.50;;
48743;SDS011;34538;48.836;9.174;2022-08-07T00:12:31;2.20;;;1.40;;
48743;SDS011;34538;48.836;9.174;2022-08-07T00:14:57;3.67;;;1.27;;
48743;SDS011;34538;48.836;9.174;2022-08-07T00:17:22;3.00;;;1.30;;
48743;SDS011;34538;48.836;9.174;2022-08-07T00:19:48;1.88;;;1.10;;
48743;SDS011;34538;48.836;9.174;2022-08-07T00:22:14;2.65;;;1.20;;
48743;SDS011;34538;48.836;9.174;2022-08-07T00:24:40;2.28;;;1.20;;
48743;SDS011;34538;48.836;9.174;2022-08-07T00:27:06;2.50;;;1.25;;
48743;SDS011;34538;48.836;9.174;2022-08-07T00:29:32;2.47;;;1.05;;
48743;SDS011;34538;48.836;9.174;2022-08-07T00:31:58;5.18;;;1.67;;
48743;SDS011;34538;48.836;9.174;2022-08-07T00:34:26;1.20;;;0.80;;
48743;SDS011;34538;48.836;9.174;2022-08-07T00:36:54;2.05;;;1.13;;
48743;SDS011;34538;48.836;9.174;2022-08-07T00:39:20;1.50;;;1.00;;
48743;SDS011;34538;48.836;9.174;2022-08-07T00:41:50;2.30;;;1.38;;
48743;SDS011;34538;48.836;9.174;2022-08-07T00:44:16;1.45;;;1.15;;
48743;SDS011;34538;48.836;9.174;2022-08-07T00:46:42;2.90;;;1.25;;
48743;SDS011;34538;48.836;9.174;2022-08-07T00:49:08;1.27;;;0.95;;
48743;SDS011;34538;48.836;9.174;2022-08-07T00:51:35;2.00;;;1.40;;
48743;SDS011;34538;48.836;9.174;2022-08-07T00:54:01;1.85;;;1.13;;
48743;SDS011;34538;48.836;9.174;2022-08-07T00:56:26;2.47;;;1.30;;
48743;SDS011;34538;48.836;9.174;2022-08-07T00:58:55;2.30;;;1.33;;
48743;SDS011;34538;48.836;9.174;2022-08-07T01:01:21;3.45;;;1.20;;
48743;SDS011;34538;48.836;9.174;2022-08-07T01:03:48;1.45;;;1.00;;
48743;SDS011;34538;48.836;9.174;2022-08-07T01:06:16;1.70;;;1.00;;
48743;SDS011;34538;48.836;9.174;2022-08-07T01:08:42;1.60;;;1.17;;
48743;SDS011;34538;48.836;9.174;2022-08-07T01:11:09;1.88;;;1.17;;
48743;SDS011;34538;48.836;9.174;2022-08-07T01:13:36;2.70;;;1.00;;
48743;SDS011;34538;48.836;9.174;2022-08-07T01:16:02;3.13;;;1.40;;
48743;SDS011;34538;48.836;9.174;2022-08-07T01:18:29;2.15;;;0.80;;
48743;SDS011;34538;48.836;9.174;2022-08-07T01:21:11;2.90;;;1.10;;
48743;SDS011;34538;48.836;9.174;2022-08-07T01:23:39;1.65;;;0.90;;
48743;SDS011;34538;48.836;9.174;2022-08-07T01:26:11;1.48;;;1.00;;
48743;SDS011;34538;48.836;9.174;2022-08-07T01:28:44;3.78;;;1.00;;
48743;SDS011;34538;48.836;9.174;2022-08-07T01:31:15;2.00;;;1.30;;
48743;SDS011;34538;48.836;9.174;2022-08-07T01:33:45;2.58;;;1.20;;
48743;SDS011;34538;48.836;9.174;2022-08-07T01:36:12;4.63;;;1.00;;
48743;SDS011;34538;48.836;9.174;2022-08-07T01:38:40;1.88;;;0.98;;
48743;SDS011;34538;48.836;9.174;2022-08-07T01:41:17;3.47;;;1.02;;
48743;SDS011;34538;48.836;9.174;2022-08-07T01:43:44;2.15;;;1.05;;
48743;SDS011;34538;48.836;9.174;2022-08-07T01:46:11;2.08;;;0.88;;
48743;SDS011;34538;48.836;9.174;2022-08-07T01:48:41;1.83;;;1.20;;
48743;SDS011;34538;48.836;9.174;2022-08-07T01:51:08;2.92;;;1.10;;
48743;SDS011;34538;48.836;9.174;2022-08-07T01:53:38;1.42;;;1.10;;
48743;SDS011;34538;48.836;9.174;2022-08-07T01:56:09;2.40;;;1.17;;
48743;SDS011;34538;48.836;9.174;2022-08-07T01:58:41;1.98;;;1.20;;
48743;SDS011;34538;48.836;9.174;2022-08-07T02:01:19;1.33;;;1.00;;
48743;SDS011;34538;48.836;9.174;2022-08-07T02:03:51;2.17;;;1.02;;
48743;SDS011;34538;48.836;9.174;2022-08-07T02:06:21;1.75;;;1.02;;
48743;SDS011;34538;48.836;9.174;2022-08-07T02:08:49;1.90;;;1.00;;
48743;SDS011;34538;48.836;9.174;2022-08-07T02:11:18;3.58;;;1.30;;
48743;SDS011;34538;48.836;9.174;2022-08-07T02:13:44;1.17;;;0.80;;
48743;SDS011;34538;48.836;9.174;2022-08-07T02:16:14;2.08;;;1.30;;
48743;SDS011;34538;48.836;9.174;2022-08-07T02:18:42;3.95;;;1.95;;
48743;SDS011;34538;48.836;9.174;2022-08-07T02:21:09;2.33;;;0.98;;
48743;SDS011;34538;48.836;9.174;2022-08-07T02:23:35;1.55;;;0.90;;
48743;SDS011;34538;48.836;9.174;2022-08-07T02:26:04;4.20;;;1.40;;
48743;SDS011;34538;48.836;9.174;2022-08-07T02:28:31;2.10;;;1.17;;
48743;SDS011;34538;48.836;9.174;2022-08-07T02:31:02;1.85;;;0.98;;
48743;SDS011;34538;48.836;9.174;2022-08-07T02:33:30;2.42;;;1.20;;
48743;SDS011;34538;48.836;9.174;2022-08-07T02:35:57;1.95;;;1.10;;
48743;SDS011;34538;48.836;9.174;2022-08-07T02:38:28;1.88;;;1.13;;
48743;SDS011;34538;48.836;9.174;2022-08-07T02:41:01;1.38;;;0.95;;
48743;SDS011;34538;48.836;9.174;2022-08-07T02:43:28;2.90;;;1.10;;
48743;SDS011;34538;48.836;9.174;2022-08-07T02:45:58;1.30;;;0.95;;
48743;SDS011;34538;48.836;9.174;2022-08-07T02:48:26;4.43;;;1.15;;
48743;SDS011;34538;48.836;9.174;2022-08-07T02:50:53;1.38;;;0.80;;
48743;SDS011;34538;48.836;9.174;2022-08-07T02:53:23;2.35;;;1.10;;
48743;SDS011;34538;48.836;9.174;2022-08-07T02:55:54;1.77;;;1.13;;
48743;SDS011;34538;48.836;9.174;2022-08-07T02:58:21;1.95;;;0.88;;
48743;SDS011;34538;48.836;9.174;2022-08-07T03:00:51;1.67;;;1.10;;
48743;SDS011;34538;48.836;9.174;2022-08-07T03:03:19;2.40;;;1.02;;
48743;SDS011;34538;48.836;9.174;2022-08-07T03:05:48;2.03;;;1.10;;
48743;SDS011;34538;48.836;9.174;2022-08-07T03:08:16;1.58;;;0.90;;
48743;SDS011;34538;48.836;9.174;2022-08-07T03:10:45;1.60;;;1.02;;
48743;SDS011;34538;48.836;9.174;2022-08-07T03:13:16;1.52;;;1.20;;
48743;SDS011;34538;48.836;9.174;2022-08-07T03:15:43;2.38;;;1.13;;
48743;SDS011;34538;48.836;9.174;2022-08-07T03:18:11;3.03;;;1.10;;
48743;SDS011;34538;48.836;9.174;2022-08-07T03:20:38;2.40;;;1.10;;
48743;SDS011;34538;48.836;9.174;2022-08-07T03:23:04;0.90;;;0.80;;
48743;SDS011;34538;48.836;9.174;2022-08-07T03:25:33;1.02;;;0.93;;
48743;SDS011;34538;48.836;9.174;2022-08-07T03:28:01;1.15;;;0.93;;
48743;SDS011;34538;48.836;9.174;2022-08-07T03:30:30;1.90;;;1.10;;
48743;SDS011;34538;48.836;9.174;2022-08-07T03:32:57;2.17;;;0.90;;
48743;SDS011;34538;48.836;9.174;2022-08-07T03:35:26;2.65;;;1.20;;
48743;SDS011;34538;48.836;9.174;2022-08-07T03:37:57;2.17;;;1.17;;
48743;SDS011;34538;48.836;9.174;2022-08-07T03:40:29;3.20;;;1.00;;
48743;SDS011;34538;48.836;9.174;2022-08-07T03:42:56;2.80;;;1.20;;
48743;SDS011;34538;48.836;9.174;2022-08-07T03:45:24;4.03;;;1.10;;
48743;SDS011;34538;48.836;9.174;2022-08-07T03:47:52;3.15;;;1.30;;
48743;SDS011;34538;48.836;9.174;2022-08-07T03:50:20;2.08;;;1.40;;
48743;SDS011;34538;48.836;9.174;2022-08-07T03:52:46;2.17;;;1.33;;
48743;SDS011;34538;48.836;9.174;2022-08-07T03:55:14;2.17;;;1.40;;
48743;SDS011;34538;48.836;9.174;2022-08-07T03:57:43;2.50;;;1.58;;
48743;SDS011;34538;48.836;9.174;2022-08-07T04:00:11;1.95;;;1.23;;
48743;SDS011;34538;48.836;9.174;2022-08-07T04:02:41;2.85;;;1.60;;
48743;SDS011;34538;48.836;9.174;2022-08-07T04:05:10;3.00;;;1.40;;
48743;SDS011;34538;48.836;9.174;2022-08-07T04:07:42;4.22;;;1.92;;
48743;SDS011;34538;48.836;9.174;2022-08-07T04:10:10;3.78;;;1.77;;
48743;SDS011;34538;48.836;9.174;2022-08-07T04:12:36;3.80;;;1.40;;
48743;SDS011;34538;48.836;9.174;2022-08-07T04:15:03;2.80;;;1.50;;
48743;SDS011;34538;48.836;9.174;2022-08-07T04:17:32;3.58;;;1.45;;
48743;SDS011;34538;48.836;9.174;2022-08-07T04:19:58;4.78;;;1.90;;
48743;SDS011;34538;48.836;9.174;2022-08-07T04:22:26;4.05;;;2.08;;
48743;SDS011;34538;48.836;9.174;2022-08-07T04:24:52;2.78;;;1.65;;
48743;SDS011;34538;48.836;9.174;2022-08-07T04:27:19;1.23;;;1.13;;
48743;SDS011;34538;48.836;9.174;2022-08-07T04:29:45;3.05;;;1.17;;
48743;SDS011;34538;48.836;9.174;2022-08-07T04:32:11;5.03;;;1.83;;
48743;SDS011;34538;48.836;9.174;2022-08-07T04:34:38;4.00;;;1.60;;
48743;SDS011;34538;48.836;9.174;2022-08-07T04:37:04;2.70;;;1.35;;
48743;SDS011;34538;48.836;9.174;2022-08-07T04:39:30;2.75;;;1.40;;
48743;SDS011;34538;48.836;9.174;2022-08-07T04:41:57;2.45;;;1.55;;
48743;SDS011;34538;48.836;9.174;2022-08-07T04:44:26;2.67;;;1.30;;
48743;SDS011;34538;48.836;9.174;2022-08-07T04:46:59;2.92;;;1.60;;
48743;SDS011;34538;48.836;9.174;2022-08-07T04:49:38;2.93;;;1.40;;
48743;SDS011;34538;48.836;9.174;2022-08-07T04:52:20;2.35;;;1.30;;
48743;SDS011;34538;48.836;9.174;2022-08-07T04:57:56;4.07;;;1.48;;
48743;SDS011;34538;48.836;9.174;2022-08-07T05:00:50;2.35;;;1.42;;
48743;SDS011;34538;48.836;9.174;2022-08-07T05:06:21;3.65;;;1.15;;
48743;SDS011;34538;48.836;9.174;2022-08-07T05:11:44;1.48;;;1.20;;
48743;SDS011;34538;48.836;9.174;2022-08-07T05:14:25;1.67;;;1.20;;
48743;SDS011;34538;48.836;9.174;2022-08-07T05:16:52;3.15;;;1.40;;
48743;SDS011;34538;48.836;9.174;2022-08-07T05:19:23;2.75;;;1.02;;
48743;SDS011;34538;48.836;9.174;2022-08-07T05:21:54;1.58;;;1.00;;
48743;SDS011;34538;48.836;9.174;2022-08-07T05:24:22;1.42;;;1.13;;
48743;SDS011;34538;48.836;9.174;2022-08-07T05:26:51;2.50;;;1.48;;
48743;SDS011;34538;48.836;9.174;2022-08-07T05:29:20;2.80;;;1.00;;
48743;SDS011;34538;48.836;9.174;2022-08-07T05:31:47;1.85;;;1.05;;
48743;SDS011;34538;48.836;9.174;2022-08-07T05:34:17;1.85;;;1.10;;
48743;SDS011;34538;48.836;9.174;2022-08-07T05:36:46;1.02;;;0.90;;
48743;SDS011;34538;48.836;9.174;2022-08-07T05:39:38;0.85;;;0.80;;
48743;SDS011;34538;48.836;9.174;2022-08-07T05:42:05;3.05;;;1.25;;
48743;SDS011;34538;48.836;9.174;2022-08-07T05:44:34;1.23;;;0.90;;
48743;SDS011;34538;48.836;9.174;2022-08-07T05:47:01;3.13;;;1.10;;
48743;SDS011;34538;48.836;9.174;2022-08-07T05:49:29;1.60;;;1.10;;
48743;SDS011;34538;48.836;9.174;2022-08-07T05:51:56;0.80;;;0.80;;
48743;SDS011;34538;48.836;9.174;2022-08-07T05:54:24;2.10;;;1.10;;
48743;SDS011;34538;48.836;9.174;2022-08-07T05:56:50;1.45;;;1.10;;
48743;SDS011;34538;48.836;9.174;2022-08-07T05:59:19;2.75;;;1.20;;
48743;SDS011;34538;48.836;9.174;2022-08-07T06:01:52;1.30;;;1.10;;
48743;SDS011;34538;48.836;9.174;2022-08-07T06:04:21;2.35;;;0.98;;
48743;SDS011;34538;48.836;9.174;2022-08-07T06:06:48;1.30;;;1.10;;
48743;SDS011;34538;48.836;9.174;2022-08-07T06:09:16;1.77;;;1.08;;
48743;SDS011;34538;48.836;9.174;2022-08-07T06:11:45;2.65;;;1.05;;
48743;SDS011;34538;48.836;9.174;2022-08-07T06:14:11;1.67;;;1.20;;
48743;SDS011;34538;48.836;9.174;2022-08-07T06:16:38;2.80;;;1.30;;
48743;SDS011;34538;48.836;9.174;2022-08-07T06:19:05;2.67;;;1.30;;
48743;SDS011;34538;48.836;9.174;2022-08-07T06:21:33;3.50;;;1.42;;
48743;SDS011;34538;48.836;9.174;2022-08-07T06:24:02;2.92;;;1.83;;
48743;SDS011;34538;48.836;9.174;2022-08-07T06:26:28;3.83;;;1.88;;
48743;SDS011;34538;48.836;9.174;2022-08-07T06:28:57;4.53;;;1.70;;
48743;SDS011;34538;48.836;9.174;2022-08-07T06:31:25;1.75;;;1.63;;
48743;SDS011;34538;48.836;9.174;2022-08-07T06:33:53;3.70;;;1.65;;
48743;SDS011;34538;48.836;9.174;2022-08-07T06:36:19;2.13;;;1.60;;
48743;SDS011;34538;48.836;9.174;2022-08-07T06:38:52;2.22;;;1.77;;
48743;SDS011;34538;48.836;9.174;2022-08-07T06:41:23;2.35;;;1.95;;
48743;SDS011;34538;48.836;9.174;2022-08-07T06:43:53;2.58;;;1.73;;
48743;SDS011;34538;48.836;9.174;2022-08-07T06:46:21;2.65;;;1.77;;
48743;SDS011;34538;48.836;9.174;2022-08-07T06:48:47;1.88;;;1.77;;
48743;SDS011;34538;48.836;9.174;2022-08-07T06:51:19;2.00;;;1.80;;
48743;SDS011;34538;48.836;9.174;2022-08-07T06:53:49;2.83;;;2.13;;
48743;SDS011;34538;48.836;9.174;2022-08-07T06:56:16;3.00;;;1.80;;
48743;SDS011;34538;48.836;9.174;2022-08-07T06:59:14;3.58;;;2.13;;
48743;SDS011;34538;48.836;9.174;2022-08-07T07:01:47;2.10;;;1.70;;
48743;SDS011;34538;48.836;9.174;2022-08-07T07:04:14;2.97;;;2.15;;
48743;SDS011;34538;48.836;9.174;2022-08-07T07:06:41;3.88;;;2.13;;
48743;SDS011;34538;48.836;9.174;2022-08-07T07:09:19;3.47;;;1.98;;
48743;SDS011;34538;48.836;9.174;2022-08-07T07:12:01;2.95;;;2.13;;
48743;SDS011;34538;48.836;9.174;2022-08-07T07:14:30;4.22;;;1.90;;
48743;SDS011;34538;48.836;9.174;2022-08-07T07:17:18;3.38;;;2.40;;
48743;SDS011;34538;48.836;9.174;2022-08-07T07:19:56;3.45;;;2.50;;
48743;SDS011;34538;48.836;9.174;2022-08-07T07:22:24;3.17;;;2.40;;
48743;SDS011;34538;48.836;9.174;2022-08-07T07:24:52;3.35;;;2.10;;
48743;SDS011;34538;48.836;9.174;2022-08-07T07:27:19;3.20;;;2.13;;
48743;SDS011;34538;48.836;9.174;2022-08-07T07:29:48;2.92;;;2.00;;
48743;SDS011;34538;48.836;9.174;2022-08-07T07:32:18;2.92;;;2.20;;
48743;SDS011;34538;48.836;9.174;2022-08-07T07:34:51;2.78;;;1.98;;
48743;SDS011;34538;48.836;9.174;2022-08-07T07:37:21;3.38;;;1.70;;
48743;SDS011;34538;48.836;9.174;2022-08-07T07:42:16;7.20;;;1.73;;
48743;SDS011;34538;48.836;9.174;2022-08-07T07:44:46;3.42;;;1.70;;
48743;SDS011;34538;48.836;9.174;2022-08-07T07:47:13;3.97;;;2.35;;
48743;SDS011;34538;48.836;9.174;2022-08-07T07:49:40;2.53;;;1.45;;
48743;SDS011;34538;48.836;9.174;2022-08-07T07:52:09;3.20;;;1.30;;
48743;SDS011;34538;48.836;9.174;2022-08-07T07:54:36;1.98;;;1.55;;
48743;SDS011;34538;48.836;9.174;2022-08-07T07:57:03;1.80;;;1.30;;
48743;SDS011;34538;48.836;9.174;2022-08-07T07:59:30;2.42;;;1.40;;
48743;SDS011;34538;48.836;9.174;2022-08-07T08:01:58;2.63;;;1.58;;
48743;SDS011;34538;48.836;9.174;2022-08-07T08:04:28;4.97;;;1.73;;
48743;SDS011;34538;48.836;9.174;2022-08-07T08:06:56;3.38;;;1.42;;
48743;SDS011;34538;48.836;9.174;2022-08-07T08:09:24;2.05;;;1.52;;
48743;SDS011;34538;48.836;9.174;2022-08-07T08:11:52;1.88;;;1.50;;
48743;SDS011;34538;48.836;9.174;2022-08-07T08:14:19;3.05;;;1.63;;
48743;SDS011;34538;48.836;9.174;2022-08-07T08:16:45;3.97;;;1.52;;
48743;SDS011;34538;48.836;9.174;2022-08-07T08:19:15;4.05;;;1.98;;
48743;SDS011;34538;48.836;9.174;2022-08-07T08:21:44;4.55;;;1.55;;
48743;SDS011;34538;48.836;9.174;2022-08-07T08:24:31;3.63;;;1.65;;
48743;SDS011;34538;48.836;9.174;2022-08-07T08:27:21;3.15;;;1.60;;
48743;SDS011;34538;48.836;9.174;2022-08-07T08:29:53;2.13;;;1.50;;
48743;SDS011;34538;48.836;9.174;2022-08-07T08:32:25;2.15;;;1.10;;
48743;SDS011;34538;48.836;9.174;2022-08-07T08:34:57;2.03;;;1.23;;
48743;SDS011;34538;48.836;9.174;2022-08-07T08:37:24;1.67;;;1.35;;
48743;SDS011;34538;48.836;9.174;2022-08-07T08:39:53;1.80;;;1.27;;
48743;SDS011;34538;48.836;9.174;2022-08-07T08:42:22;1.35;;;1.10;;
48743;SDS011;34538;48.836;9.174;2022-08-07T08:44:57;1.77;;;1.02;;
48743;SDS011;34538;48.836;9.174;2022-08-07T08:47:43;1.10;;;0.80;;
48743;SDS011;34538;48.836;9.174;2022-08-07T08:50:31;2.53;;;1.10;;
48743;SDS011;34538;48.836;9.174;2022-08-07T08:53:17;3.00;;;1.08;;
48743;SDS011;34538;48.836;9.174;2022-08-07T08:55:45;0.68;;;0.65;;
48743;SDS011;34538;48.836;9.174;2022-08-07T09:12:13;1.33;;;0.90;;
48743;SDS011;34538;48.836;9.174;2022-08-07T09:15:00;1.58;;;0.60;;
48743;SDS011;34538;48.836;9.174;2022-08-07T09:18:00;1.13;;;0.68;;
48743;SDS011;34538;48.836;9.174;2022-08-07T09:26:26;1.80;;;0.73;;
48743;SDS011;34538;48.836;9.174;2022-08-07T09:31:49;1.15;;;0.68;;
48743;SDS011;34538;48.836;9.174;2022-08-07T09:40:23;2.20;;;0.82;;
48743;SDS011;34538;48.836;9.174;2022-08-07T09:45:46;1.73;;;1.00;;
48743;SDS011;34538;48.836;9.174;2022-08-07T09:48:45;1.33;;;0.70;;
48743;SDS011;34538;48.836;9.174;2022-08-07T09:51:30;2.08;;;1.02;;
48743;SDS011;34538;48.836;9.174;2022-08-07T09:54:19;1.40;;;0.60;;
48743;SDS011;34538;48.836;9.174;2022-08-07T10:02:26;1.60;;;0.68;;
48743;SDS011;34538;48.836;9.174;2022-08-07T10:07:48;0.75;;;0.60;;
48743;SDS011;34538;48.836;9.174;2022-08-07T10:15:55;3.00;;;0.65;;
48743;SDS011;34538;48.836;9.174;2022-08-07T10:21:28;1.13;;;0.60;;
48743;SDS011;34538;48.836;9.174;2022-08-07T10:24:21;0.50;;;0.50;;
48743;SDS011;34538;48.836;9.174;2022-08-07T10:30:10;2.15;;;0.47;;
48743;SDS011;34538;48.836;9.174;2022-08-07T10:33:09;1.15;;;0.50;;
48743;SDS011;34538;48.836;9.174;2022-08-07T10:38:50;2.35;;;0.50;;
48743;SDS011;34538;48.836;9.174;2022-08-07T10:41:43;2.92;;;0.57;;
48743;SDS011;34538;48.836;9.174;2022-08-07T10:52:36;1.23;;;0.50;;
48743;SDS011;34538;48.836;9.174;2022-08-07T10:55:09;0.82;;;0.60;;
48743;SDS011;34538;48.836;9.174;2022-08-07T10:57:45;3.55;;;0.60;;
48743;SDS011;34538;48.836;9.174;2022-08-07T11:00:23;0.88;;;0.60;;
48743;SDS011;34538;48.836;9.174;2022-08-07T11:09:01;0.93;;;0.50;;
48743;SDS011;34538;48.836;9.174;2022-08-07T11:11:32;1.58;;;0.57;;
48743;SDS011;34538;48.836;9.174;2022-08-07T11:14:06;1.15;;;0.60;;
48743;SDS011;34538;48.836;9.174;2022-08-07T11:16:53;1.48;;;0.40;;
48743;SDS011;34538;48.836;9.174;2022-08-07T11:22:04;0.73;;;0.50;;
48743;SDS011;34538;48.836;9.174;2022-08-07T11:27:44;0.98;;;0.50;;
48743;SDS011;34538;48.836;9.174;2022-08-07T11:30:17;1.33;;;0.63;;
48743;SDS011;34538;48.836;9.174;2022-08-07T11:32:46;1.30;;;0.50;;
48743;SDS011;34538;48.836;9.174;2022-08-07T11:35:33;0.80;;;0.40;;
48743;SDS011;34538;48.836;9.174;2022-08-07T11:41:00;0.70;;;0.43;;
48743;SDS011;34538;48.836;9.174;2022-08-07T11:43:41;0.73;;;0.60;;
48743;SDS011;34538;48.836;9.174;2022-08-07T11:46:21;0.73;;;0.60;;
48743;SDS011;34538;48.836;9.174;2022-08-07T11:51:32;1.85;;;0.70;;
48743;SDS011;34538;48.836;9.174;2022-08-07T12:00:06;1.13;;;0.80;;
48743;SDS011;34538;48.836;9.174;2022-08-07T12:11:15;0.52;;;0.50;;
48743;SDS011;34538;48.836;9.174;2022-08-07T12:13:49;0.70;;;0.50;;
48743;SDS011;34538;48.836;9.174;2022-08-07T12:16:27;0.90;;;0.70;;
48743;SDS011;34538;48.836;9.174;2022-08-07T12:19:00;0.80;;;0.50;;
48743;SDS011;34538;48.836;9.174;2022-08-07T12:24:21;0.98;;;0.60;;
48743;SDS011;34538;48.836;9.174;2022-08-07T12:27:25;0.60;;;0.40;;
48743;SDS011;34538;48.836;9.174;2022-08-07T12:30:01;1.58;;;0.52;;
48743;SDS011;34538;48.836;9.174;2022-08-07T12:32:29;0.93;;;0.68;;
48743;SDS011;34538;48.836;9.174;2022-08-07T12:35:16;1.50;;;0.60;;
48743;SDS011;34538;48.836;9.174;2022-08-07T12:37:45;1.77;;;0.50;;
48743;SDS011;34538;48.836;9.174;2022-08-07T12:40:15;1.65;;;0.68;;
48743;SDS011;34538;48.836;9.174;2022-08-07T12:42:49;3.00;;;1.38;;
48743;SDS011;34538;48.836;9.174;2022-08-07T12:45:17;0.98;;;0.50;;
48743;SDS011;34538;48.836;9.174;2022-08-07T12:47:48;1.92;;;0.57;;
48743;SDS011;34538;48.836;9.174;2022-08-07T12:58:25;1.15;;;0.60;;
48743;SDS011;34538;48.836;9.174;2022-08-07T13:03:34;1.25;;;0.63;;
48743;SDS011;34538;48.836;9.174;2022-08-07T13:09:26;1.02;;;0.70;;
48743;SDS011;34538;48.836;9.174;2022-08-07T13:12:15;0.68;;;0.65;;
48743;SDS011;34538;48.836;9.174;2022-08-07T13:14:57;1.30;;;0.60;;
48743;SDS011;34538;48.836;9.174;2022-08-07T13:23:18;1.67;;;0.50;;
48743;SDS011;34538;48.836;9.174;2022-08-07T13:25:54;1.35;;;0.68;;
48743;SDS011;34538;48.836;9.174;2022-08-07T13:28:31;0.90;;;0.70;;
48743;SDS011;34538;48.836;9.174;2022-08-07T13:31:10;1.35;;;0.50;;
48743;SDS011;34538;48.836;9.174;2022-08-07T13:33:54;0.77;;;0.60;;
48743;SDS011;34538;48.836;9.174;2022-08-07T13:36:27;1.23;;;0.65;;
48743;SDS011;34538;48.836;9.174;2022-08-07T13:39:04;2.75;;;0.80;;
48743;SDS011;34538;48.836;9.174;2022-08-07T13:41:38;0.73;;;0.73;;
48743;SDS011;34538;48.836;9.174;2022-08-07T13:44:09;0.68;;;0.65;;
48743;SDS011;34538;48.836;9.174;2022-08-07T13:46:36;2.72;;;0.73;;
48743;SDS011;34538;48.836;9.174;2022-08-07T13:49:06;1.13;;;0.70;;
48743;SDS011;34538;48.836;9.174;2022-08-07T13:51:35;3.17;;;0.73;;
48743;SDS011;34538;48.836;9.174;2022-08-07T13:54:08;4.55;;;0.73;;
48743;SDS011;34538;48.836;9.174;2022-08-07T13:56:37;1.77;;;0.77;;
48743;SDS011;34538;48.836;9.174;2022-08-07T13:59:10;1.58;;;0.75;;
48743;SDS011;34538;48.836;9.174;2022-08-07T14:01:53;1.02;;;0.52;;
48743;SDS011;34538;48.836;9.174;2022-08-07T14:04:28;1.42;;;0.70;;
48743;SDS011;34538;48.836;9.174;2022-08-07T14:06:55;1.08;;;0.65;;
48743;SDS011;34538;48.836;9.174;2022-08-07T14:09:23;0.60;;;0.50;;
48743;SDS011;34538;48.836;9.174;2022-08-07T14:11:52;1.27;;;0.60;;
48743;SDS011;34538;48.836;9.174;2022-08-07T14:14:25;1.48;;;0.82;;
48743;SDS011;34538;48.836;9.174;2022-08-07T14:16:55;2.20;;;0.50;;
48743;SDS011;34538;48.836;9.174;2022-08-07T14:19:35;1.42;;;0.80;;
48743;SDS011;34538;48.836;9.174;2022-08-07T14:22:08;0.60;;;0.60;;
48743;SDS011;34538;48.836;9.174;2022-08-07T14:24:40;2.03;;;0.70;;
48743;SDS011;34538;48.836;9.174;2022-08-07T14:27:10;1.20;;;0.68;;
48743;SDS011;34538;48.836;9.174;2022-08-07T14:29:46;0.90;;;0.70;;
48743;SDS011;34538;48.836;9.174;2022-08-07T14:32:13;0.65;;;0.63;;
48743;SDS011;34538;48.836;9.174;2022-08-07T14:34:41;0.73;;;0.60;;
48743;SDS011;34538;48.836;9.174;2022-08-07T14:37:09;1.52;;;0.60;;
48743;SDS011;34538;48.836;9.174;2022-08-07T14:39:37;3.22;;;0.70;;
48743;SDS011;34538;48.836;9.174;2022-08-07T14:42:09;0.70;;;0.55;;
48743;SDS011;34538;48.836;9.174;2022-08-07T14:44:42;0.70;;;0.70;;
48743;SDS011;34538;48.836;9.174;2022-08-07T14:47:17;0.70;;;0.70;;
48743;SDS011;34538;48.836;9.174;2022-08-07T14:49:44;2.33;;;0.60;;
48743;SDS011;34538;48.836;9.174;2022-08-07T14:52:12;3.13;;;0.73;;
48743;SDS011;34538;48.836;9.174;2022-08-07T14:54:38;1.23;;;0.60;;
48743;SDS011;34538;48.836;9.174;2022-08-07T14:57:08;1.25;;;0.70;;
48743;SDS011;34538;48.836;9.174;2022-08-07T14:59:36;1.38;;;0.73;;
48743;SDS011;34538;48.836;9.174;2022-08-07T15:02:12;1.77;;;0.82;;
48743;SDS011;34538;48.836;9.174;2022-08-07T15:04:41;1.40;;;0.93;;
48743;SDS011;34538;48.836;9.174;2022-08-07T15:07:10;2.75;;;0.63;;
48743;SDS011;34538;48.836;9.174;2022-08-07T15:09:40;1.40;;;0.75;;
48743;SDS011;34538;48.836;9.174;2022-08-07T15:12:09;0.85;;;0.70;;
48743;SDS011;34538;48.836;9.174;2022-08-07T15:14:56;0.85;;;0.70;;
48743;SDS011;34538;48.836;9.174;2022-08-07T15:17:29;2.70;;;0.88;;
48743;SDS011;34538;48.836;9.174;2022-08-07T15:20:00;1.40;;;0.60;;
48743;SDS011;34538;48.836;9.174;2022-08-07T15:22:30;2.05;;;0.90;;
48743;SDS011;34538;48.836;9.174;2022-08-07T15:24:59;0.93;;;0.60;;
48743;SDS011;34538;48.836;9.174;2022-08-07T15:27:27;1.13;;;0.95;;
48743;SDS011;34538;48.836;9.174;2022-08-07T15:30:01;1.83;;;1.10;;
48743;SDS011;34538;48.836;9.174;2022-08-07T15:32:32;2.10;;;0.73;;
48743;SDS011;34538;48.836;9.174;2022-08-07T15:35:15;1.23;;;0.70;;
48743;SDS011;34538;48.836;9.174;2022-08-07T15:37:50;1.13;;;0.98;;
48743;SDS011;34538;48.836;9.174;2022-08-07T15:40:19;1.25;;;0.90;;
48743;SDS011;34538;48.836;9.174;2022-08-07T15:42:48;1.13;;;0.85;;
48743;SDS011;34538;48.836;9.174;2022-08-07T15:45:29;1.17;;;0.93;;
48743;SDS011;34538;48.836;9.174;2022-08-07T15:47:59;1.10;;;0.77;;
48743;SDS011;34538;48.836;9.174;2022-08-07T15:50:30;0.90;;;0.65;;
48743;SDS011;34538;48.836;9.174;2022-08-07T15:53:00;3.25;;;0.98;;
48743;SDS011;34538;48.836;9.174;2022-08-07T15:55:31;0.77;;;0.70;;
48743;SDS011;34538;48.836;9.174;2022-08-07T15:57:58;2.30;;;1.10;;
48743;SDS011;34538;48.836;9.174;2022-08-07T16:00:35;0.60;;;0.50;;
48743;SDS011;34538;48.836;9.174;2022-08-07T16:03:19;1.10;;;0.82;;
48743;SDS011;34538;48.836;9.174;2022-08-07T16:05:48;1.50;;;0.80;;
48743;SDS011;34538;48.836;9.174;2022-08-07T16:08:15;1.83;;;1.00;;
48743;SDS011;34538;48.836;9.174;2022-08-07T16:10:56;1.08;;;0.90;;
48743;SDS011;34538;48.836;9.174;2022-08-07T16:13:44;0.88;;;0.70;;
48743;SDS011;34538;48.836;9.174;2022-08-07T16:19:16;1.02;;;0.70;;
48743;SDS011;34538;48.836;9.174;2022-08-07T16:22:07;2.80;;;1.10;;
48743;SDS011;34538;48.836;9.174;2022-08-07T16:27:58;0.70;;;0.70;;
48743;SDS011;34538;48.836;9.174;2022-08-07T16:30:52;1.50;;;0.80;;
48743;SDS011;34538;48.836;9.174;2022-08-07T16:33:25;1.20;;;0.80;;
48743;SDS011;34538;48.836;9.174;2022-08-07T16:36:06;0.95;;;0.73;;
48743;SDS011;34538;48.836;9.174;2022-08-07T16:41:35;1.30;;;1.00;;
48743;SDS011;34538;48.836;9.174;2022-08-07T16:44:33;1.48;;;0.95;;
48743;SDS011;34538;48.836;9.174;2022-08-07T16:55:51;3.38;;;1.73;;
48743;SDS011;34538;48.836;9.174;2022-08-07T17:01:36;2.00;;;0.80;;
48743;SDS011;34538;48.836;9.174;2022-08-07T17:04:35;1.75;;;0.88;;
48743;SDS011;34538;48.836;9.174;2022-08-07T17:07:08;1.10;;;1.00;;
48743;SDS011;34538;48.836;9.174;2022-08-07T17:09:53;1.98;;;1.02;;
48743;SDS011;34538;48.836;9.174;2022-08-07T17:12:23;1.80;;;1.00;;
48743;SDS011;34538;48.836;9.174;2022-08-07T17:15:22;1.25;;;0.80;;
48743;SDS011;34538;48.836;9.174;2022-08-07T17:20:32;1.20;;;0.80;;
48743;SDS011;34538;48.836;9.174;2022-08-07T17:31:22;1.88;;;0.75;;
48743;SDS011;34538;48.836;9.174;2022-08-07T17:36:53;1.00;;;0.65;;
48743;SDS011;34538;48.836;9.174;2022-08-07T17:45:35;2.03;;;0.60;;
48743;SDS011;34538;48.836;9.174;2022-08-07T17:48:06;1.27;;;0.70;;
48743;SDS011;34538;48.836;9.174;2022-08-07T17:50:52;0.80;;;0.80;;
48743;SDS011;34538;48.836;9.174;2022-08-07T17:56:13;4.25;;;0.88;;
48743;SDS011;34538;48.836;9.174;2022-08-07T18:01:19;1.60;;;0.80;;
48743;SDS011;34538;48.836;9.174;2022-08-07T18:06:59;0.60;;;0.60;;
48743;SDS011;34538;48.836;9.174;2022-08-07T18:09:37;2.05;;;0.60;;
48743;SDS011;34538;48.836;9.174;2022-08-07T18:14:45;1.75;;;0.70;;
48743;SDS011;34538;48.836;9.174;2022-08-07T18:20:04;1.40;;;0.80;;